LX0APE-4 Weather Reports


Display with metric or nautical units.
time (UTC)temp
F
wind
direction
speed
MPH
gust
MPH
rain 1hr
in
rain 24hr
in
rain mn
in
humidity
%
barometer
mb
20260504150154 65 157 0.0 0.0 0.00 0.00 0.00 59 5010.1
20260504141154 66 157 0.0 0.0 0.00 0.00 0.00 55 5010.4
20260504140654 67 180 0.0 0.0 0.00 0.00 0.00 54 5010.6
20260504140154 67 180 0.0 0.0 0.00 0.00 0.00 54 5010.5
20260504130659 64 180 0.0 0.0 0.00 0.00 0.00 63 5010.8
20260504130654 64 180 0.0 0.0 0.00 0.00 0.00 63 5010.8
20260504130154 64 202 0.0 0.0 0.00 0.00 0.00 62 5010.9
20260504120154 64 247 0.0 0.0 0.00 0.00 0.00 63 5011.0
20260504110655 64 247 0.0 0.0 0.00 0.00 0.00 63 5011.2
20260504110155 64 247 0.0 0.0 0.00 0.00 0.00 63 5011.1
20260504100155 65 202 0.0 0.0 0.00 0.00 0.00 56 5011.5
20260504081655 63 180 0.0 0.0 0.00 0.00 0.00 57 5011.2
20260504081155 63 180 0.0 0.0 0.00 0.00 0.00 58 5011.2
20260504080655 63 225 0.0 0.0 0.00 0.00 0.00 59 5011.1
20260504080155 62 180 0.0 0.0 0.00 0.00 0.00 60 5011.1
20260504070155 58 180 0.0 0.0 0.00 0.00 0.00 66 5010.8
20260504060155 54 135 0.0 0.0 0.00 0.00 0.00 67 5010.5
20260504050655 52 157 0.0 0.0 0.00 0.00 0.00 69 5010.5
20260504050155 52 157 0.0 0.0 0.00 0.00 0.00 70 5010.5
20260504045655 52 180 0.0 0.0 0.00 0.00 0.00 70 5010.7
20260504045203 51 180 0.0 0.0 0.00 0.00 0.00 71 5010.7
20260504045159 51 180 0.0 0.0 0.00 0.00 0.00 71 5010.7
20260504045155 51 180 0.0 0.0 0.00 0.00 0.00 71 5010.7
20260504044655 51 180 0.0 0.0 0.00 0.00 0.00 71 5010.6
20260504044155 51 180 0.0 0.0 0.00 0.00 0.00 72 5010.6
20260504043700 50 180 0.0 0.0 0.00 0.00 0.00 72 5010.7
20260504043655 50 180 0.0 0.0 0.00 0.00 0.00 72 5010.7
20260504043155 50 180 0.0 0.0 0.00 0.00 0.00 72 5010.6
20260504042655 50 180 0.0 0.0 0.00 0.00 0.00 72 5010.7
20260504042155 50 180 0.0 0.0 0.00 0.00 0.00 72 5010.6
20260504041655 50 180 0.0 0.0 0.00 0.00 0.00 72 5010.6
20260504041155 50 157 0.0 0.0 0.00 0.00 0.00 72 5010.5
20260504040659 50 157 0.0 0.0 0.00 0.00 0.00 72 5010.6
20260504040655 50 157 0.0 0.0 0.00 0.00 0.00 72 5010.6
20260504040155 50 180 0.0 0.0 0.00 0.00 0.00 72 5010.5
20260504035655 50 180 0.0 0.0 0.00 0.00 0.00 72 5010.5
20260504035201 50 157 0.0 0.0 0.00 0.00 0.00 72 5010.3
20260504035155 50 157 0.0 0.0 0.00 0.00 0.00 72 5010.3
20260504034655 50 157 0.0 0.0 0.00 0.00 0.00 72 5010.6
20260504034155 50 135 0.0 0.0 0.00 0.00 0.00 72 5010.6
20260504033655 50 180 0.0 0.0 0.00 0.00 0.00 72 5010.6
20260504033155 50 180 0.0 0.0 0.00 0.00 0.00 72 5010.4
20260504032655 51 157 0.0 0.0 0.00 0.00 0.00 72 5010.7
20260504032159 51 180 0.0 0.0 0.00 0.00 0.00 72 5010.6
20260504032155 51 180 0.0 0.0 0.00 0.00 0.00 72 5010.6
20260504031655 51 180 0.0 0.0 0.00 0.00 0.00 71 5010.6
20260504031155 51 157 0.0 0.0 0.00 0.00 0.00 71 5010.6
20260504030655 51 180 0.0 0.0 0.00 0.00 0.00 70 5010.6
20260504030155 51 157 0.0 0.0 0.00 0.00 0.00 70 5010.5
20260504025655 51 135 0.0 0.0 0.00 0.00 0.00 71 5010.4
20260504025155 51 135 0.0 0.0 0.00 0.00 0.00 70 5010.5
20260504024655 51 135 0.0 0.0 0.00 0.00 0.00 70 5010.4
20260504024155 51 157 0.0 0.0 0.00 0.00 0.00 70 5010.3
20260504023700 51 135 0.0 0.0 0.00 0.00 0.00 70 5010.3
20260504023655 51 135 0.0 0.0 0.00 0.00 0.00 70 5010.3
20260504023155 51 157 0.0 0.0 0.00 0.00 0.00 70 5010.4
20260504022655 51 157 0.0 0.0 0.00 0.00 0.00 70 5010.4
20260504022155 51 157 0.0 0.0 0.00 0.00 0.00 71 5010.5
20260504021656 51 157 0.0 0.0 0.00 0.00 0.00 71 5010.5
20260504021155 51 180 0.0 0.0 0.00 0.00 0.00 70 5010.6
20260504020700 51 180 0.0 0.0 0.00 0.00 0.00 71 5010.6
20260504020656 51 180 0.0 0.0 0.00 0.00 0.00 71 5010.6
20260504020156 51 157 0.0 0.0 0.00 0.00 0.00 71 5010.6
20260504015656 51 157 0.0 0.0 0.00 0.00 0.00 71 5010.6
20260504015156 51 157 0.0 0.0 0.00 0.00 0.00 71 5010.6
20260504014656 51 157 0.0 0.0 0.00 0.00 0.00 71 5010.6
20260504014156 52 202 0.0 0.0 0.00 0.00 0.00 71 5010.6
20260504013656 51 157 0.0 0.0 0.00 0.00 0.00 71 5010.5
20260504013156 51 157 0.0 0.0 0.00 0.00 0.00 71 5010.6
20260504012656 52 157 0.0 0.0 0.00 0.00 0.00 70 5010.7
20260504012156 52 157 0.0 0.0 0.00 0.00 0.00 70 5010.6
20260504011656 52 180 0.0 0.0 0.00 0.00 0.00 70 5010.7
20260504011156 52 180 0.0 0.0 0.00 0.00 0.00 70 5010.8
20260504010700 52 180 0.0 0.0 0.00 0.00 0.00 70 5010.7
20260504010656 52 180 0.0 0.0 0.00 0.00 0.00 70 5010.7
20260504010156 52 202 0.0 0.0 0.00 0.00 0.00 70 5010.7
20260504005656 52 180 0.0 0.0 0.00 0.00 0.00 69 5010.8
20260504005156 52 180 0.0 0.0 0.00 0.00 0.00 69 5010.9
20260504004656 52 180 0.0 0.0 0.00 0.00 0.00 69 5010.7
20260504004156 53 180 0.0 0.0 0.00 0.00 0.00 69 5010.6
20260504003656 53 180 0.0 0.0 0.00 0.00 0.00 69 5010.5
20260504003156 53 202 0.0 0.0 0.00 0.00 0.00 69 5010.5
20260504002656 53 180 0.0 0.0 0.00 0.00 0.00 69 5010.5
20260504002200 53 180 0.0 0.0 0.00 0.00 0.00 69 5010.5
20260504002156 53 180 0.0 0.0 0.00 0.00 0.00 69 5010.5
20260504001656 53 135 0.0 0.0 0.00 0.00 0.00 69 5010.5
20260504001156 53 157 0.0 0.0 0.00 0.00 0.00 68 5010.5
20260504000701 53 180 0.0 0.0 0.00 0.00 0.00 68 5010.5
20260504000656 53 180 0.0 0.0 0.00 0.00 0.00 68 5010.5
20260504000156 53 180 0.0 0.0 0.00 0.00 0.00 69 5010.3
20260503235656 53 135 0.0 0.0 0.00 0.00 0.00 69 5010.4
20260503235156 53 135 0.0 0.0 0.00 0.00 0.00 69 5010.7
20260503234656 -6 135 0.0 0.0 0.00 0.00 0.00 69 5010.5
20260503234156 53 135 0.0 0.0 0.00 0.00 0.00 69 5010.5
20260503233700 53 135 0.0 0.0 0.00 0.00 0.00 70 5010.5
20260503233656 53 135 0.0 0.0 0.00 0.00 0.00 70 5010.5
20260503233156 53 112 0.0 0.0 0.00 0.00 0.00 70 5010.5
20260503232656 53 135 0.0 0.0 0.00 0.00 0.00 70 5010.5
20260503232156 53 157 0.0 0.0 0.00 0.00 0.00 70 5010.4
20260503231656 53 157 0.0 0.0 0.00 0.00 0.00 69 5010.6
20260503231156 54 157 0.0 0.0 0.00 0.00 0.00 69 5010.5
20260503230656 54 157 0.0 0.0 0.00 0.00 0.00 69 5010.5
20260503230156 54 157 0.0 0.0 0.00 0.00 0.00 70 5010.4
20260503225656 53 157 0.0 0.0 0.00 0.00 0.00 69 5010.5
20260503225156 54 157 0.0 0.0 0.00 0.00 0.00 69 5010.6
20260503224656 54 157 0.0 0.0 0.00 0.00 0.00 69 5010.6
20260503224156 54 157 0.0 0.0 0.00 0.00 0.00 68 5010.6
20260503223656 54 157 0.0 0.0 0.00 0.00 0.00 68 5010.8
20260503223156 55 157 0.0 0.0 0.00 0.00 0.00 68 5010.7
20260503222656 55 157 0.0 0.0 0.00 0.00 0.00 68 5010.6
20260503222156 55 157 0.0 0.0 0.00 0.00 0.00 68 5010.6
20260503221656 55 157 0.0 0.0 0.00 0.00 0.00 68 5010.5
20260503221156 55 157 0.0 0.0 0.00 0.00 0.00 69 5010.5
20260503220656 55 157 0.0 0.0 0.00 0.00 0.00 68 5010.5
20260503220156 55 180 0.0 0.0 0.00 0.00 0.00 68 5010.5
20260503215656 55 157 0.0 0.0 0.00 0.00 0.00 68 5010.6
20260503215156 55 157 0.0 0.0 0.00 0.00 0.00 68 5010.5
20260503214656 55 157 0.0 0.0 0.00 0.00 0.00 68 5010.5
20260503214156 55 157 0.0 0.0 0.00 0.00 0.00 68 5010.5
20260503213656 55 135 0.0 0.0 0.00 0.00 0.00 68 5010.6
20260503213156 55 157 0.0 0.0 0.00 0.00 0.00 68 5010.5
20260503212656 55 135 0.0 0.0 0.00 0.00 0.00 68 5010.5
20260503212156 55 135 0.0 0.0 0.00 0.00 0.00 67 5010.7
20260503211656 55 135 0.0 0.0 0.00 0.00 0.00 67 5010.6
20260503211156 56 135 0.0 0.0 0.00 0.00 0.00 67 5010.6
20260503210702 56 157 0.0 0.0 0.00 0.00 0.00 68 5010.4
20260503210656 56 157 0.0 0.0 0.00 0.00 0.00 68 5010.4
20260503210156 56 135 0.0 0.0 0.00 0.00 0.00 68 5010.5
20260503205656 55 135 0.0 0.0 0.00 0.00 0.00 67 5010.7
20260503205156 55 157 0.0 0.0 0.00 0.00 0.00 67 5010.6
20260503204656 55 180 0.0 0.0 0.00 0.00 0.00 67 5010.6
20260503204156 55 202 0.0 0.0 0.00 0.00 0.00 67 5010.7
20260503203656 55 202 0.0 0.0 0.00 0.00 0.00 67 5010.6
20260503203156 55 202 0.0 0.0 0.00 0.00 0.00 66 5010.5
20260503202656 56 202 0.0 0.0 0.00 0.00 0.00 66 5010.5
20260503202156 56 202 0.0 0.0 0.00 0.00 0.00 66 5010.5
20260503201656 56 202 0.0 0.0 0.00 0.00 0.00 66 5010.5
20260503201156 56 202 0.0 0.0 0.00 0.00 0.00 65 5010.5
20260503200656 57 202 0.0 0.0 0.00 0.00 0.00 65 5010.5
20260503200156 57 202 0.0 0.0 0.00 0.00 0.00 65 5010.6
20260503195656 57 202 0.0 0.0 0.00 0.00 0.00 65 5010.5
20260503195156 57 202 0.0 0.0 0.00 0.00 0.00 64 5010.5
20260503194656 58 202 0.0 0.0 0.00 0.00 0.00 64 5010.6
20260503194156 58 202 0.0 0.0 0.00 0.00 0.00 64 5010.6
20260503193656 58 202 0.0 0.0 0.00 0.00 0.00 64 5010.5
20260503193156 58 202 0.0 0.0 0.00 0.00 0.00 64 5010.6
20260503192656 58 202 0.0 0.0 0.00 0.00 0.00 64 5010.5
20260503192156 58 202 0.0 0.0 0.00 0.00 0.00 63 5010.4
20260503191656 58 180 0.0 0.0 0.00 0.00 0.00 63 5010.5
20260503191156 58 180 0.0 0.0 0.00 0.00 0.00 62 5010.4
20260503190656 59 180 0.0 0.0 0.00 0.00 0.00 61 5010.3
20260503190156 59 180 0.0 0.0 0.00 0.00 0.00 61 5010.4
20260503185656 60 157 0.0 0.0 0.00 0.00 0.00 60 5010.3
20260503185156 60 180 0.0 0.0 0.00 0.00 0.00 60 5010.3
20260503184656 60 180 0.0 0.0 0.00 0.00 0.00 59 5010.3
20260503184156 61 135 0.0 0.0 0.00 0.00 0.00 58 5010.2
20260503183702 62 180 0.0 0.0 0.00 0.00 0.00 57 5010.2
20260503183656 62 180 0.0 0.0 0.00 0.00 0.00 57 5010.2
20260503183156 63 180 0.0 0.0 0.00 0.00 0.00 56 5010.1
20260503182656 63 180 0.0 0.0 0.00 0.00 0.00 56 5010.0
20260503182200 63 202 0.0 0.0 0.00 0.00 0.00 57 5010.0
20260503182156 63 202 0.0 0.0 0.00 0.00 0.00 57 5010.0
20260503181656 63 202 0.0 0.0 0.00 0.00 0.00 58 5010.0
20260503181156 62 202 0.0 0.0 0.00 0.00 0.00 60 5010.0
20260503180656 62 225 0.0 0.0 0.00 0.00 0.00 60 5010.1
20260503180156 62 202 0.0 0.0 0.00 0.00 0.00 60 5009.9
20260503175656 62 202 0.0 0.0 0.00 0.00 0.00 61 5009.9
20260503175200 62 202 0.0 0.0 0.00 0.00 0.00 62 5009.8
20260503175156 62 202 0.0 0.0 0.00 0.00 0.00 62 5009.8
20260503174656 62 225 0.0 0.0 0.00 0.00 0.00 62 5009.9
20260503174156 62 112 0.0 0.0 0.00 0.00 0.00 62 5010.0
20260503173656 62 202 0.0 0.0 0.00 0.00 0.00 62 5009.9
20260503173156 62 135 0.0 0.0 0.00 0.00 0.00 63 5009.9
20260503172656 62 180 0.0 0.0 0.00 0.00 0.00 63 5010.0
20260503172156 61 180 0.0 0.0 0.00 0.00 0.00 64 5010.1
20260503171656 62 180 0.0 0.0 0.00 0.00 0.00 63 5010.1
20260503171156 62 157 0.0 0.0 0.00 0.00 0.00 64 5010.0
20260503170705 62 180 0.0 0.0 0.00 0.00 0.00 64 5010.0
20260503170656 62 180 0.0 0.0 0.00 0.00 0.00 64 5010.0
20260503170156 62 180 0.0 0.0 0.00 0.00 0.00 64 5010.1
20260503160156 63 180 0.0 0.0 0.00 0.00 0.00 68 5010.5
20260503150657 57 180 0.0 0.0 0.00 0.00 0.00 74 5011.1